This demonstration page uses our WeatherBlox Daily Observations layout. Learn more.

38.88101, -77.10428

Hourly Observations for November 5, 2016

Temp ( °F °C ) Dew Point ( °F °C ) Humidity (%) Winds ( mph kmh ) Pressure ( in mb ) Visibility ( mi km ) Precip ( " mm )
12:52 am 00:52 Clear 50 10 37 2.8 61 61 NNW 9 15 30.3 1026 10 16.09344 0 0
1:52 am 01:52 Clear 47 8.3 36 2.2 66 66 NNW 7 11 30.3 1026 10 16.09344 0 0
2:52 am 02:52 Clear 48 8.9 38 3.3 68 68 N 6 9 30.3 1026 10 16.09344 0 0
3:52 am 03:52 Clear 47 8.3 36 2.2 66 66 NNW 7 11 30.3 1026 10 16.09344 0 0
4:52 am 04:52 Clear 47 8.3 36 2.2 66 66 NNW 6 9 30.33 1027 10 16.09344 0 0
5:52 am 05:52 Clear 47 8.3 36 2.2 66 66 NNW 6 9 30.33 1027 10 16.09344 0 0
6:52 am 06:52 Clear 47 8.3 36 2.2 66 66 NW 5 7 30.33 1027 10 16.09344 0 0
7:52 am 07:52 Sunny 47 8.3 37 2.8 69 69 Calm 30.33 1027 10 16.09344 0 0
8:52 am 08:52 Sunny 50 10 39 3.9 66 66 Calm 30.36 1028 10 16.09344 0 0
9:52 am 09:52 Sunny 54 12.2 39 3.9 57 57 NW 6 9 30.36 1028 10 16.09344 0 0
10:52 am 10:52 Sunny 57 13.9 38 3.3 49 49 NNW 10 17 30.36 1028 10 16.09344 0 0
11:52 am 11:52 Sunny 60 15.6 39 3.9 46 46 W 6 9 30.33 1027 10 16.09344 0 0
12:52 pm 12:52 Sunny 65 18.3 39 3.9 39 39 NW 8 13 30.3 1026 10 16.09344 0 0
1:52 pm 13:52 Mostly Sunny 67 19.4 39 3.9 36 36 W 9 15 30.27 1025 10 16.09344 0 0
2:52 pm 14:52 Mostly Sunny 68 20 38 3.3 33 33 WNW 8 13 30.24 1024 10 16.09344 0 0
3:52 pm 15:52 Mostly Sunny 69 20.6 39 3.9 33 33 W 9 15 30.24 1024 10 16.09344 0 0
4:52 pm 16:52 Mostly Sunny 67 19.4 38 3.3 35 35 WNW 7 11 30.24 1024 10 16.09344 0 0
5:52 pm 17:52 Mostly Sunny 65 18.3 39 3.9 39 39 W 7 11 30.24 1024 10 16.09344 0 0
6:52 pm 18:52 Clear 62 16.7 40 4.4 44 44 WSW 5 7 30.24 1024 10 16.09344 0 0
7:52 pm 19:52 Clear 57 13.9 41 5 55 55 WSW 5 7 30.24 1024 10 16.09344 0 0
8:52 pm 20:52 Clear 55 12.8 42 5.6 62 62 SSW 7 11 30.24 1024 10 16.09344 0 0
9:52 pm 21:52 Clear 54 12.2 43 6.1 67 67 SSW 6 9 30.24 1024 10 16.09344 0 0
10:52 pm 22:52 Clear 55 12.8 41 5 59 59 Calm 30.27 1025 10 16.09344 0 0
11:52 pm 23:52 Clear 53 11.7 40 4.4 61 61 S 6 9 30.27 1025 10 16.09344 0 0

Powered by AerisWeather